createdAt,value
2019-02-05T00:00:57.398Z,943.09
2019-02-05T00:01:57.373Z,943.08
2019-02-05T00:02:57.419Z,943.08
2019-02-05T00:03:57.351Z,943.10
2019-02-05T00:04:57.346Z,943.10
2019-02-05T00:05:57.328Z,943.06
2019-02-05T00:06:57.316Z,943.07
2019-02-05T00:07:57.309Z,943.12
2019-02-05T00:08:57.318Z,943.16
2019-02-05T00:09:57.282Z,943.12
2019-02-05T00:10:57.272Z,943.09
2019-02-05T00:11:57.261Z,943.09
2019-02-05T00:12:57.249Z,943.09
2019-02-05T00:13:57.251Z,943.08
2019-02-05T00:14:57.265Z,943.12
2019-02-05T00:15:57.215Z,943.11
2019-02-05T00:16:57.205Z,943.03
2019-02-05T00:17:57.201Z,943.05
2019-02-05T00:18:57.195Z,943.01
2019-02-05T00:19:57.168Z,943.08
2019-02-05T00:20:57.178Z,943.04
2019-02-05T00:21:57.144Z,943.07
2019-02-05T00:22:57.137Z,943.02
2019-02-05T00:23:57.138Z,943.05
2019-02-05T00:24:57.113Z,943.05
2019-02-05T00:26:05.976Z,943.09
2019-02-05T00:26:58.099Z,943.07
2019-02-05T00:27:57.077Z,943.07
2019-02-05T00:28:57.081Z,943.08
2019-02-05T00:29:57.056Z,943.08
2019-02-05T00:30:57.046Z,943.06
2019-02-05T00:31:57.033Z,943.06
2019-02-05T00:32:57.029Z,943.09
2019-02-05T00:33:57.031Z,943.06
2019-02-05T00:34:57.009Z,943.06
2019-02-05T00:35:56.990Z,943.06
2019-02-05T00:36:56.977Z,943.08
2019-02-05T00:37:56.966Z,943.09
2019-02-05T00:38:56.988Z,943.08
2019-02-05T00:39:56.950Z,943.11
2019-02-05T00:40:56.936Z,943.12
2019-02-05T00:41:56.922Z,943.09
2019-02-05T00:42:56.910Z,943.10
2019-02-05T00:43:56.935Z,943.11
2019-02-05T00:44:56.896Z,943.07
2019-02-05T00:45:56.877Z,943.07
2019-02-05T00:46:56.865Z,943.06
2019-02-05T00:47:56.854Z,943.05
2019-02-05T00:48:56.844Z,943.04
2019-02-05T00:49:56.853Z,943.02
2019-02-05T00:50:56.833Z,943.03
2019-02-05T00:51:56.816Z,943.04
2019-02-05T00:52:56.801Z,943.03
2019-02-05T00:53:56.787Z,943.08
2019-02-05T00:54:56.790Z,943.10
2019-02-05T00:55:56.770Z,943.12
2019-02-05T00:56:56.779Z,943.11
2019-02-05T00:57:56.763Z,943.08
2019-02-05T00:58:56.730Z,943.09
2019-02-05T00:59:56.733Z,943.11
2019-02-05T01:00:56.708Z,943.06
2019-02-05T01:01:56.696Z,943.12
2019-02-05T01:02:56.701Z,943.05
2019-02-05T01:03:56.673Z,943.08
2019-02-05T01:04:56.686Z,943.12
2019-02-05T01:05:56.651Z,943.07
2019-02-05T01:06:56.644Z,943.07
2019-02-05T01:07:56.630Z,943.06
2019-02-05T01:08:56.638Z,943.06
2019-02-05T01:09:56.639Z,943.08
2019-02-05T01:10:56.595Z,943.08
2019-02-05T01:11:56.587Z,943.08
2019-02-05T01:12:56.576Z,943.08
2019-02-05T01:13:56.565Z,943.07
2019-02-05T01:14:56.567Z,943.07
2019-02-05T01:15:56.553Z,943.08
2019-02-05T01:16:56.530Z,943.10
2019-02-05T01:17:56.516Z,943.09
2019-02-05T01:18:56.506Z,943.12
2019-02-05T01:19:56.513Z,943.04
2019-02-05T01:20:56.515Z,943.04
2019-02-05T01:21:56.472Z,943.01
2019-02-05T01:22:56.461Z,943.02
2019-02-05T01:23:56.449Z,943.03
2019-02-05T01:24:56.438Z,942.97
2019-02-05T01:25:56.440Z,943.00
2019-02-05T01:26:56.426Z,943.03
2019-02-05T01:27:56.404Z,943.02
2019-02-05T01:28:56.394Z,943.08
2019-02-05T01:29:56.383Z,943.03
2019-02-05T01:30:56.389Z,943.03
2019-02-05T01:31:56.368Z,942.96
2019-02-05T01:32:56.379Z,943.01
2019-02-05T01:33:56.339Z,943.00
2019-02-05T01:34:56.325Z,942.98
2019-02-05T01:35:56.339Z,942.99
2019-02-05T01:36:56.360Z,942.98
2019-02-05T01:37:56.293Z,942.98
2019-02-05T01:38:56.290Z,942.99
2019-02-05T01:39:56.269Z,942.99
2019-02-05T01:40:56.409Z,942.97
2019-02-05T01:41:56.247Z,942.96
2019-02-05T01:42:56.234Z,942.94
2019-02-05T01:43:56.224Z,942.96
2019-02-05T01:44:56.222Z,942.95
2019-02-05T01:45:56.218Z,942.98
2019-02-05T01:46:56.189Z,942.95
2019-02-05T01:47:56.278Z,942.93
2019-02-05T01:48:56.171Z,942.99
2019-02-05T01:49:56.157Z,942.98
2019-02-05T01:50:56.193Z,942.98
2019-02-05T01:51:56.135Z,942.98
2019-02-05T01:52:56.127Z,942.97
2019-02-05T01:53:56.115Z,942.94
2019-02-05T01:54:56.107Z,942.91
2019-02-05T01:55:56.086Z,942.93
2019-02-05T01:56:56.096Z,942.86
2019-02-05T01:57:56.065Z,942.85
2019-02-05T01:58:56.053Z,942.88
2019-02-05T01:59:56.042Z,942.90
2019-02-05T02:00:56.029Z,942.94
2019-02-05T02:01:56.032Z,942.94
2019-02-05T02:02:56.026Z,942.93
2019-02-05T02:03:55.995Z,942.93
2019-02-05T02:04:55.985Z,942.87
2019-02-05T02:05:55.981Z,942.85
2019-02-05T02:06:55.982Z,942.89
2019-02-05T02:07:55.949Z,942.85
2019-02-05T02:08:55.956Z,942.78
2019-02-05T02:09:55.946Z,942.85
2019-02-05T02:10:55.921Z,942.75
2019-02-05T02:11:55.917Z,942.77
2019-02-05T02:12:55.920Z,942.74
2019-02-05T02:13:55.882Z,942.75
2019-02-05T02:14:55.879Z,942.70
2019-02-05T02:15:55.860Z,942.66
2019-02-05T02:16:55.860Z,942.68
2019-02-05T02:17:55.838Z,942.67
2019-02-05T02:18:55.826Z,942.71
2019-02-05T02:19:55.813Z,942.70
2019-02-05T02:20:55.808Z,942.73
2019-02-05T02:21:55.809Z,942.70
2019-02-05T02:22:55.786Z,942.67
2019-02-05T02:23:55.766Z,942.69
2019-02-05T02:24:55.756Z,942.73
2019-02-05T02:25:55.746Z,942.75
2019-02-05T02:26:55.758Z,942.71
2019-02-05T02:27:55.734Z,942.78
2019-02-05T02:28:55.709Z,942.80
2019-02-05T02:29:55.697Z,942.85
2019-02-05T02:30:55.688Z,942.84
2019-02-05T02:31:55.714Z,942.83
2019-02-05T02:32:55.673Z,942.77
2019-02-05T02:33:55.656Z,942.81
2019-02-05T02:34:55.650Z,942.90
2019-02-05T02:35:55.630Z,942.86
2019-02-05T02:36:55.970Z,942.78
2019-02-05T02:37:55.609Z,942.81
2019-02-05T02:38:55.602Z,942.79
2019-02-05T02:39:55.591Z,942.86
2019-02-05T02:40:55.576Z,942.83
2019-02-05T02:41:55.561Z,942.83
2019-02-05T02:42:55.564Z,942.87
2019-02-05T02:43:55.548Z,942.84
2019-02-05T02:44:55.559Z,942.87
2019-02-05T02:45:55.515Z,942.85
2019-02-05T02:46:55.504Z,942.81
2019-02-05T02:47:55.515Z,942.83
2019-02-05T02:48:55.481Z,942.86
2019-02-05T02:49:55.470Z,942.81
2019-02-05T02:50:55.482Z,942.84
2019-02-05T02:51:55.446Z,942.83
2019-02-05T02:52:55.450Z,942.84
2019-02-05T02:53:55.425Z,942.88
2019-02-05T02:54:55.417Z,942.86
2019-02-05T02:55:55.406Z,942.87
2019-02-05T02:57:04.631Z,942.92
2019-02-05T02:57:56.391Z,942.95
2019-02-05T02:58:55.370Z,942.96
2019-02-05T02:59:55.366Z,942.96
2019-02-05T03:00:55.357Z,942.99
2019-02-05T03:01:55.337Z,942.99
2019-02-05T03:02:55.368Z,942.97
2019-02-05T03:03:55.315Z,942.94
2019-02-05T03:04:55.298Z,942.92
2019-02-05T03:05:55.289Z,942.94
2019-02-05T03:06:55.279Z,942.93
2019-02-05T03:07:55.271Z,942.92
2019-02-05T03:08:55.289Z,942.95
2019-02-05T03:09:55.245Z,942.94
2019-02-05T03:10:55.233Z,942.92
2019-02-05T03:11:55.221Z,942.95
2019-02-05T03:12:55.214Z,942.99
2019-02-05T03:13:55.213Z,942.98
2019-02-05T03:14:55.195Z,943.03
2019-02-05T03:15:55.173Z,942.99
2019-02-05T03:16:55.166Z,943.00
2019-02-05T03:17:55.150Z,943.00
2019-02-05T03:18:55.153Z,942.97
2019-02-05T03:19:55.130Z,943.01
2019-02-05T03:20:55.124Z,942.94
2019-02-05T03:21:55.105Z,942.98
2019-02-05T03:22:55.096Z,942.98
2019-02-05T03:23:55.096Z,942.98
2019-02-05T03:24:55.074Z,942.97
2019-02-05T03:25:55.058Z,943.04
2019-02-05T03:26:55.059Z,943.07
2019-02-05T03:27:55.046Z,943.06
2019-02-05T03:28:55.038Z,943.05
2019-02-05T03:29:55.018Z,943.05
2019-02-05T03:30:55.004Z,943.11
2019-02-05T03:31:54.992Z,943.14
2019-02-05T03:32:55.130Z,943.12
2019-02-05T03:33:55.107Z,943.12
2019-02-05T03:34:54.957Z,943.13
2019-02-05T03:35:54.957Z,943.17
2019-02-05T03:36:54.954Z,943.17
2019-02-05T03:37:54.921Z,943.16
2019-02-05T03:38:54.936Z,943.16
2019-02-05T03:39:54.907Z,943.21
2019-02-05T03:40:54.897Z,943.20
2019-02-05T03:41:54.884Z,943.20
2019-02-05T03:42:54.866Z,943.23
2019-02-05T03:43:54.854Z,943.19
2019-02-05T03:44:54.864Z,943.17
2019-02-05T03:45:54.837Z,943.16
2019-02-05T03:46:54.826Z,943.18
2019-02-05T03:47:54.807Z,943.14
2019-02-05T03:48:54.795Z,943.16
2019-02-05T03:49:54.799Z,943.15
2019-02-05T03:50:54.787Z,943.21
2019-02-05T03:51:54.766Z,943.16
2019-02-05T03:52:54.752Z,943.20
2019-02-05T03:53:54.738Z,943.13
2019-02-05T03:54:54.741Z,943.14
2019-02-05T03:55:54.718Z,943.13
2019-02-05T03:56:54.736Z,943.13
2019-02-05T03:57:54.696Z,943.08
2019-02-05T03:58:54.697Z,943.06
2019-02-05T03:59:54.683Z,943.00
2019-02-05T04:00:54.658Z,943.01
2019-02-05T04:01:54.649Z,942.94
2019-02-05T04:02:54.655Z,942.92
2019-02-05T04:03:54.632Z,942.88
2019-02-05T04:04:54.629Z,942.89
2019-02-05T04:05:54.706Z,942.90
2019-02-05T04:06:54.588Z,942.85
2019-02-05T04:07:54.580Z,942.86
2019-02-05T04:08:54.575Z,942.85
2019-02-05T04:09:54.593Z,942.85
2019-02-05T04:10:54.543Z,942.82
2019-02-05T04:11:54.535Z,942.85
2019-02-05T04:12:54.523Z,942.85
2019-02-05T04:13:54.515Z,942.83
2019-02-05T04:14:54.529Z,942.81
2019-02-05T04:15:54.596Z,942.77
2019-02-05T04:16:54.487Z,942.78
2019-02-05T04:17:54.463Z,942.79
2019-02-05T04:18:54.452Z,942.75
2019-02-05T04:19:54.878Z,942.74
2019-02-05T04:20:54.448Z,942.78
2019-02-05T04:21:54.418Z,942.71
2019-02-05T04:22:54.407Z,942.77
2019-02-05T04:23:54.396Z,942.78
2019-02-05T04:24:54.386Z,942.81
2019-02-05T04:25:54.387Z,942.80
2019-02-05T04:26:54.396Z,942.81
2019-02-05T04:27:54.351Z,942.86
2019-02-05T04:28:54.354Z,942.86
2019-02-05T04:29:54.328Z,942.88
2019-02-05T04:30:54.330Z,942.92
2019-02-05T04:31:54.306Z,942.96
2019-02-05T04:32:54.331Z,942.99
2019-02-05T04:33:54.280Z,943.02
2019-02-05T04:34:54.269Z,943.02
2019-02-05T04:35:54.272Z,943.01
2019-02-05T04:36:57.272Z,943.06
2019-02-05T04:37:54.238Z,943.03
2019-02-05T04:38:54.229Z,943.06
2019-02-05T04:39:54.211Z,943.03
2019-02-05T04:40:54.216Z,943.05
2019-02-05T04:41:54.190Z,943.03
2019-02-05T04:42:54.181Z,943.02
2019-02-05T04:43:54.171Z,943.06
2019-02-05T04:44:54.158Z,943.01
2019-02-05T04:45:54.158Z,943.05
2019-02-05T04:46:54.133Z,943.02
2019-02-05T04:47:54.132Z,942.97
2019-02-05T04:48:54.114Z,942.99
2019-02-05T04:49:54.096Z,942.97
2019-02-05T04:50:54.132Z,942.94
2019-02-05T04:51:54.077Z,942.91
2019-02-05T04:52:54.063Z,942.90
2019-02-05T04:53:54.052Z,942.86
2019-02-05T04:54:54.047Z,942.84
2019-02-05T04:55:54.031Z,942.84
2019-02-05T04:56:54.040Z,942.81
2019-02-05T04:57:57.530Z,942.76
2019-02-05T04:58:55.001Z,942.77
2019-02-05T04:59:53.982Z,942.77
2019-02-05T05:00:53.979Z,942.70
2019-02-05T05:01:53.973Z,942.68
2019-02-05T05:02:53.957Z,942.66
2019-02-05T05:03:53.937Z,942.68
2019-02-05T05:04:53.935Z,942.72
2019-02-05T05:05:53.920Z,942.74
2019-02-05T05:06:53.927Z,942.80
2019-02-05T05:07:53.896Z,942.83
2019-02-05T05:08:53.887Z,942.82
2019-02-05T05:09:53.871Z,942.84
2019-02-05T05:10:53.859Z,942.82
2019-02-05T05:11:53.861Z,942.86
2019-02-05T05:12:53.834Z,942.88
2019-02-05T05:13:53.823Z,942.91
2019-02-05T05:14:53.818Z,942.90
2019-02-05T05:15:53.800Z,942.90
2019-02-05T05:16:53.813Z,942.82
2019-02-05T05:17:53.789Z,942.82
2019-02-05T05:18:53.765Z,942.80
2019-02-05T05:19:53.755Z,942.81
2019-02-05T05:20:53.751Z,942.77
2019-02-05T05:21:53.764Z,942.80
2019-02-05T05:22:53.727Z,942.86
2019-02-05T05:23:53.707Z,942.88
2019-02-05T05:24:53.701Z,942.85
2019-02-05T05:25:53.685Z,942.90
2019-02-05T05:26:53.703Z,942.92
2019-02-05T05:27:53.664Z,942.94
2019-02-05T05:28:53.658Z,942.91
2019-02-05T05:29:53.639Z,942.92
2019-02-05T05:30:53.629Z,942.95
2019-02-05T05:31:53.637Z,942.92
2019-02-05T05:32:53.617Z,942.95
2019-02-05T05:33:53.598Z,942.98
2019-02-05T05:34:53.590Z,943.00
2019-02-05T05:35:53.575Z,942.98
2019-02-05T05:36:53.573Z,942.93
2019-02-05T05:37:53.551Z,942.93
2019-02-05T05:38:53.556Z,942.93
2019-02-05T05:39:53.534Z,942.88
2019-02-05T05:40:53.514Z,942.93
2019-02-05T05:41:53.543Z,942.95
2019-02-05T05:42:53.490Z,942.98
2019-02-05T05:43:53.479Z,942.97
2019-02-05T05:44:53.521Z,943.00
2019-02-05T05:45:53.458Z,943.02
2019-02-05T05:46:53.446Z,943.02
2019-02-05T05:47:53.447Z,942.98
2019-02-05T05:48:53.422Z,942.94
2019-02-05T05:49:53.414Z,942.96
2019-02-05T05:50:53.415Z,942.95
2019-02-05T05:51:53.386Z,943.01
2019-02-05T05:52:53.391Z,942.93
2019-02-05T05:53:53.364Z,942.94
2019-02-05T05:54:53.354Z,942.96
2019-02-05T05:55:53.342Z,942.97
2019-02-05T05:56:53.349Z,942.99
2019-02-05T05:57:53.352Z,943.00
2019-02-05T05:58:53.305Z,942.98
2019-02-05T05:59:53.296Z,942.99
2019-02-05T06:00:53.305Z,943.01
2019-02-05T06:01:53.286Z,943.04
2019-02-05T06:02:53.278Z,943.03
2019-02-05T06:03:53.251Z,942.95
2019-02-05T06:04:53.238Z,942.93
2019-02-05T06:05:53.234Z,942.89
2019-02-05T06:06:53.221Z,942.89
2019-02-05T06:07:53.253Z,942.82
2019-02-05T06:08:53.202Z,942.87
2019-02-05T06:09:53.184Z,942.88
2019-02-05T06:10:53.175Z,942.92
2019-02-05T06:11:53.160Z,942.90
2019-02-05T06:12:53.168Z,942.94
2019-02-05T06:13:53.157Z,942.94
2019-02-05T06:14:53.125Z,942.99
2019-02-05T06:15:53.114Z,942.99
2019-02-05T06:16:53.106Z,943.02
2019-02-05T06:17:53.115Z,942.99
2019-02-05T06:18:53.080Z,943.01
2019-02-05T06:19:53.087Z,943.02
2019-02-05T06:20:53.089Z,943.07
2019-02-05T06:21:53.047Z,943.11
2019-02-05T06:22:53.051Z,943.15
2019-02-05T06:23:53.053Z,943.16
2019-02-05T06:24:53.019Z,943.20
2019-02-05T06:25:53.016Z,943.22
2019-02-05T06:26:53.012Z,943.14
2019-02-05T06:27:52.993Z,943.19
2019-02-05T06:28:52.968Z,943.21
2019-02-05T06:29:52.967Z,943.29
2019-02-05T06:30:52.955Z,943.30
2019-02-05T06:31:52.935Z,943.29
2019-02-05T06:32:52.955Z,943.31
2019-02-05T06:33:52.913Z,943.34
2019-02-05T06:34:52.901Z,943.34
2019-02-05T06:35:52.890Z,943.30
2019-02-05T06:36:52.883Z,943.31
2019-02-05T06:37:52.891Z,943.28
2019-02-05T06:38:52.862Z,943.31
2019-02-05T06:39:52.859Z,943.38
2019-02-05T06:40:52.838Z,943.39
2019-02-05T06:41:52.847Z,943.46
2019-02-05T06:42:52.818Z,943.45
2019-02-05T06:43:52.812Z,943.45
2019-02-05T06:44:52.795Z,943.47
2019-02-05T06:45:52.779Z,943.49
2019-02-05T06:46:52.779Z,943.53
2019-02-05T06:47:52.754Z,943.52
2019-02-05T06:48:52.765Z,943.51
2019-02-05T06:49:52.733Z,943.50
2019-02-05T06:50:52.728Z,943.45
2019-02-05T06:51:52.709Z,943.45
2019-02-05T06:52:52.697Z,943.45
2019-02-05T06:53:52.700Z,943.52
2019-02-05T06:54:52.675Z,943.52
2019-02-05T06:55:52.663Z,943.52
2019-02-05T06:56:52.663Z,943.54
2019-02-05T06:57:52.654Z,943.58
2019-02-05T06:58:52.653Z,943.61
2019-02-05T06:59:52.629Z,943.65
2019-02-05T07:00:52.604Z,943.64
2019-02-05T07:01:52.594Z,943.61
2019-02-05T07:02:53.265Z,943.63
2019-02-05T07:03:52.590Z,943.58
2019-02-05T07:04:52.559Z,943.57
2019-02-05T07:05:52.549Z,943.57
2019-02-05T07:06:52.537Z,943.56
2019-02-05T07:07:52.638Z,943.60
2019-02-05T07:08:52.561Z,943.64
2019-02-05T07:09:52.517Z,943.67
2019-02-05T07:10:52.494Z,943.68
2019-02-05T07:11:52.481Z,943.65
2019-02-05T07:12:52.527Z,943.69
2019-02-05T07:13:52.461Z,943.66
2019-02-05T07:14:52.470Z,943.69
2019-02-05T07:15:52.440Z,943.72
2019-02-05T07:16:52.430Z,943.74
2019-02-05T07:17:52.414Z,943.69
2019-02-05T07:18:52.405Z,943.75
2019-02-05T07:19:52.405Z,943.75
2019-02-05T07:20:52.398Z,943.72
2019-02-05T07:21:52.377Z,943.77
2019-02-05T07:22:52.362Z,943.80
2019-02-05T07:23:52.343Z,943.85
2019-02-05T07:24:52.350Z,943.90
2019-02-05T07:25:52.320Z,943.89
2019-02-05T07:26:52.321Z,943.85
2019-02-05T07:27:52.303Z,943.86
2019-02-05T07:28:58.949Z,943.90
2019-02-05T07:29:53.296Z,943.84
2019-02-05T07:30:52.263Z,943.86
2019-02-05T07:31:52.263Z,943.91
2019-02-05T07:32:52.266Z,943.95
2019-02-05T07:33:52.244Z,943.99
2019-02-05T07:34:52.232Z,944.00
2019-02-05T07:35:52.212Z,944.00
2019-02-05T07:36:52.226Z,944.01
2019-02-05T07:37:52.205Z,944.04
2019-02-05T07:38:52.173Z,944.05
2019-02-05T07:39:52.180Z,944.06
2019-02-05T07:40:52.151Z,944.10
2019-02-05T07:41:52.141Z,944.06
2019-02-05T07:42:52.129Z,944.09
2019-02-05T07:43:52.125Z,944.09
2019-02-05T07:44:52.120Z,944.10
2019-02-05T07:45:52.097Z,944.10
2019-02-05T07:46:52.087Z,944.14
2019-02-05T07:47:52.071Z,944.15
2019-02-05T07:48:52.062Z,944.12
2019-02-05T07:49:52.079Z,944.12
2019-02-05T07:50:52.049Z,944.15
2019-02-05T07:51:52.026Z,944.14
2019-02-05T07:52:52.014Z,944.17
2019-02-05T07:53:52.001Z,944.14
2019-02-05T07:54:52.010Z,944.18
2019-02-05T07:55:51.993Z,944.12
2019-02-05T07:56:51.966Z,944.12
2019-02-05T07:57:51.957Z,944.11
2019-02-05T07:58:51.943Z,944.10
2019-02-05T07:59:51.958Z,944.07
2019-02-05T08:00:51.923Z,944.07
2019-02-05T08:01:51.932Z,944.08
2019-02-05T08:02:51.902Z,944.10
2019-02-05T08:03:51.890Z,944.16
2019-02-05T08:04:51.904Z,944.16
2019-02-05T08:05:51.874Z,944.20
2019-02-05T08:06:51.857Z,944.20
2019-02-05T08:07:51.854Z,944.19
2019-02-05T08:08:51.835Z,944.19
2019-02-05T08:09:51.818Z,944.16
2019-02-05T08:10:52.285Z,944.17
2019-02-05T08:11:51.798Z,944.16
2019-02-05T08:12:51.784Z,944.18
2019-02-05T08:13:51.774Z,944.20
2019-02-05T08:14:51.761Z,944.20
2019-02-05T08:15:51.764Z,944.21
2019-02-05T08:16:51.738Z,944.21
2019-02-05T08:17:51.727Z,944.24
2019-02-05T08:18:51.728Z,944.23
2019-02-05T08:19:51.796Z,944.33
2019-02-05T08:20:51.711Z,944.27
2019-02-05T08:21:51.696Z,944.29
2019-02-05T08:22:51.670Z,944.26
2019-02-05T08:23:51.664Z,944.28
2019-02-05T08:24:51.648Z,944.31
2019-02-05T08:25:51.668Z,944.32
2019-02-05T08:26:51.626Z,944.31
2019-02-05T08:27:51.629Z,944.27
2019-02-05T08:28:51.602Z,944.32
2019-02-05T08:29:51.593Z,944.33
2019-02-05T08:30:51.602Z,944.37
2019-02-05T08:31:51.579Z,944.42
2019-02-05T08:32:51.560Z,944.47
2019-02-05T08:33:51.546Z,944.48
2019-02-05T08:34:51.537Z,944.47
2019-02-05T08:35:51.543Z,944.47
2019-02-05T08:36:51.513Z,944.47
2019-02-05T08:37:51.512Z,944.50
2019-02-05T08:38:51.490Z,944.54
2019-02-05T08:39:51.482Z,944.55
2019-02-05T08:40:51.490Z,944.63
2019-02-05T08:41:51.466Z,944.63
2019-02-05T08:42:51.445Z,944.63
2019-02-05T08:43:51.443Z,944.65
2019-02-05T08:44:51.425Z,944.63
2019-02-05T08:45:56.828Z,944.66
2019-02-05T08:46:52.400Z,944.63
2019-02-05T08:47:51.391Z,944.68
2019-02-05T08:48:51.382Z,944.65
2019-02-05T08:49:51.377Z,944.63
2019-02-05T08:50:51.356Z,944.57
2019-02-05T08:51:51.370Z,944.56
2019-02-05T08:52:51.337Z,944.63
2019-02-05T08:53:51.324Z,944.62
2019-02-05T08:54:51.312Z,944.62
2019-02-05T08:55:51.310Z,944.66
2019-02-05T08:56:51.304Z,944.66
2019-02-05T08:57:51.398Z,944.62
2019-02-05T08:58:51.271Z,944.70
2019-02-05T08:59:51.257Z,944.72
2019-02-05T09:00:51.245Z,944.75
2019-02-05T09:01:51.250Z,944.76
2019-02-05T09:02:51.227Z,944.74
2019-02-05T09:03:51.217Z,944.73
2019-02-05T09:04:51.212Z,944.70
2019-02-05T09:05:51.195Z,944.69
2019-02-05T09:06:51.202Z,944.73
2019-02-05T09:07:51.169Z,944.69
2019-02-05T09:08:51.157Z,944.73
2019-02-05T09:09:51.147Z,944.73
2019-02-05T09:10:51.133Z,944.70
2019-02-05T09:11:51.136Z,944.67
2019-02-05T09:12:51.123Z,944.69
2019-02-05T09:13:51.100Z,944.71
2019-02-05T09:14:51.091Z,944.67
2019-02-05T09:15:51.080Z,944.71
2019-02-05T09:16:51.123Z,944.72
2019-02-05T09:17:51.056Z,944.77
2019-02-05T09:18:51.050Z,944.75
2019-02-05T09:19:51.032Z,944.72
2019-02-05T09:20:51.023Z,944.77
2019-02-05T09:21:51.019Z,944.75
2019-02-05T09:22:51.017Z,944.79
2019-02-05T09:23:50.990Z,944.78
2019-02-05T09:24:50.988Z,944.75
2019-02-05T09:25:50.973Z,944.72
2019-02-05T09:26:50.962Z,944.74
2019-02-05T09:27:50.964Z,944.71
2019-02-05T09:28:52.517Z,944.70
2019-02-05T09:29:50.922Z,944.65
2019-02-05T09:30:50.919Z,944.63
2019-02-05T09:31:50.903Z,944.61
2019-02-05T09:32:50.908Z,944.61
2019-02-05T09:33:50.878Z,944.64
2019-02-05T09:34:50.870Z,944.68
2019-02-05T09:35:50.855Z,944.67
2019-02-05T09:36:50.853Z,944.70
2019-02-05T09:37:50.850Z,944.72
2019-02-05T09:38:50.824Z,944.70
2019-02-05T09:39:50.810Z,944.70
2019-02-05T09:40:50.799Z,944.73
2019-02-05T09:41:50.793Z,944.69
2019-02-05T09:42:50.819Z,944.72
2019-02-05T09:43:50.769Z,944.73
2019-02-05T09:44:50.762Z,944.76
2019-02-05T09:45:50.744Z,944.78
2019-02-05T09:46:50.734Z,944.72
2019-02-05T09:47:50.721Z,944.70
2019-02-05T09:48:50.733Z,944.65
2019-02-05T09:49:50.709Z,944.61
2019-02-05T09:50:50.688Z,944.63
2019-02-05T09:51:50.691Z,944.61
2019-02-05T09:52:50.666Z,944.65
2019-02-05T09:53:50.674Z,944.69
2019-02-05T09:54:50.757Z,944.67
2019-02-05T09:55:50.632Z,944.62
2019-02-05T09:56:50.640Z,944.67
2019-02-05T09:57:50.610Z,944.67
2019-02-05T09:58:50.614Z,944.70
2019-02-05T09:59:50.588Z,944.71
2019-02-05T10:00:50.583Z,944.72
2019-02-05T10:01:50.575Z,944.68
2019-02-05T10:02:50.565Z,944.71
2019-02-05T10:03:50.558Z,944.70
2019-02-05T10:04:50.532Z,944.71
2019-02-05T10:05:50.524Z,944.70
2019-02-05T10:06:50.525Z,944.77
2019-02-05T10:07:50.508Z,944.73
2019-02-05T10:08:50.504Z,944.73
2019-02-05T10:09:50.479Z,944.69
2019-02-05T10:10:50.465Z,944.73
2019-02-05T10:11:50.463Z,944.72
2019-02-05T10:12:50.460Z,944.75
2019-02-05T10:13:50.445Z,944.84
2019-02-05T10:14:50.422Z,944.84
2019-02-05T10:15:50.409Z,944.89
2019-02-05T10:16:50.399Z,944.94
2019-02-05T10:17:50.389Z,944.90
2019-02-05T10:18:50.401Z,944.92
2019-02-05T10:19:50.387Z,944.87
2019-02-05T10:20:50.355Z,944.88
2019-02-05T10:21:50.343Z,944.85
2019-02-05T10:22:50.335Z,944.82
2019-02-05T10:23:50.335Z,944.82
2019-02-05T10:24:50.397Z,944.86
2019-02-05T10:25:50.301Z,944.85
2019-02-05T10:26:50.287Z,944.87
2019-02-05T10:27:50.277Z,944.80
2019-02-05T10:28:50.292Z,944.80
2019-02-05T10:29:59.281Z,944.73
2019-02-05T10:30:51.247Z,944.73
2019-02-05T10:31:50.239Z,944.79
2019-02-05T10:32:50.224Z,944.78
2019-02-05T10:33:55.337Z,944.80
2019-02-05T10:34:51.212Z,944.79
2019-02-05T10:35:50.197Z,944.74
2019-02-05T10:36:50.207Z,944.72
2019-02-05T10:37:50.173Z,944.71
2019-02-05T10:38:50.155Z,944.71
2019-02-05T10:39:50.159Z,944.67
2019-02-05T10:40:50.135Z,944.59
2019-02-05T10:41:50.129Z,944.65
2019-02-05T10:42:50.129Z,944.58
2019-02-05T10:43:50.106Z,944.56
2019-02-05T10:44:50.105Z,944.59
2019-02-05T10:45:50.079Z,944.55
2019-02-05T10:46:50.068Z,944.55
2019-02-05T10:47:50.064Z,944.53
2019-02-05T10:48:50.054Z,944.55
2019-02-05T10:49:50.051Z,944.54
2019-02-05T10:50:50.025Z,944.54
2019-02-05T10:51:50.014Z,944.54
2019-02-05T10:52:50.003Z,944.51
2019-02-05T10:53:49.996Z,944.54
2019-02-05T10:54:50.019Z,944.58
2019-02-05T10:55:49.983Z,944.59
2019-02-05T10:56:49.958Z,944.57
2019-02-05T10:57:49.952Z,944.54
2019-02-05T10:58:49.939Z,944.56
2019-02-05T10:59:49.952Z,944.55
2019-02-05T11:00:49.924Z,944.52
2019-02-05T11:01:49.905Z,944.56
2019-02-05T11:02:49.893Z,944.57
2019-02-05T11:03:49.889Z,944.58
2019-02-05T11:04:49.905Z,944.56
2019-02-05T11:05:49.872Z,944.59
2019-02-05T11:06:49.859Z,944.59
2019-02-05T11:07:49.842Z,944.59
2019-02-05T11:08:49.829Z,944.56
2019-02-05T11:09:49.817Z,944.51
2019-02-05T11:10:49.820Z,944.48
2019-02-05T11:11:49.797Z,944.51
2019-02-05T11:12:49.796Z,944.49
2019-02-05T11:13:49.775Z,944.49
2019-02-05T11:14:49.765Z,944.51
2019-02-05T11:15:49.770Z,944.49
2019-02-05T11:16:49.740Z,944.43
2019-02-05T11:17:49.732Z,944.44
2019-02-05T11:18:49.722Z,944.46
2019-02-05T11:19:49.710Z,944.41
2019-02-05T11:20:49.719Z,944.43
2019-02-05T11:21:49.688Z,944.45
2019-02-05T11:22:49.688Z,944.42
2019-02-05T11:23:49.662Z,944.40
2019-02-05T11:24:49.663Z,944.38
2019-02-05T11:25:49.655Z,944.36
2019-02-05T11:26:49.632Z,944.37
2019-02-05T11:27:49.670Z,944.38
2019-02-05T11:28:49.622Z,944.35
2019-02-05T11:29:49.599Z,944.35
2019-02-05T11:30:49.612Z,944.28
2019-02-05T11:31:49.579Z,944.31
2019-02-05T11:32:49.566Z,944.28
2019-02-05T11:33:49.582Z,944.23
2019-02-05T11:34:49.540Z,944.22
2019-02-05T11:35:49.549Z,944.20
2019-02-05T11:36:49.516Z,944.15
2019-02-05T11:37:49.602Z,944.19
2019-02-05T11:38:49.499Z,944.18
2019-02-05T11:39:49.495Z,944.22
2019-02-05T11:40:49.512Z,944.20
2019-02-05T11:41:49.461Z,944.19
2019-02-05T11:42:49.456Z,944.18
2019-02-05T11:43:49.444Z,944.23
2019-02-05T11:44:49.442Z,944.24
2019-02-05T11:45:49.433Z,944.20
2019-02-05T11:46:49.440Z,944.21
2019-02-05T11:47:49.396Z,944.26
2019-02-05T11:48:49.386Z,944.27
2019-02-05T11:49:49.381Z,944.26
2019-02-05T11:50:49.377Z,944.32
2019-02-05T11:51:49.367Z,944.31
2019-02-05T11:52:49.341Z,944.31
2019-02-05T11:53:49.329Z,944.28
2019-02-05T11:54:49.319Z,944.26
2019-02-05T11:55:49.309Z,944.29
2019-02-05T11:56:49.318Z,944.29
2019-02-05T11:57:49.289Z,944.31
2019-02-05T11:58:49.276Z,944.33
2019-02-05T11:59:49.265Z,944.33
2019-02-05T12:00:49.255Z,944.34
2019-02-05T12:01:49.262Z,944.34
2019-02-05T12:02:49.297Z,944.24
2019-02-05T12:03:49.221Z,944.22
2019-02-05T12:04:49.207Z,944.17
2019-02-05T12:05:49.196Z,944.17
2019-02-05T12:06:49.198Z,944.17
2019-02-05T12:07:49.175Z,944.24
2019-02-05T12:08:49.184Z,944.22
2019-02-05T12:09:49.152Z,944.23
2019-02-05T12:10:49.141Z,944.22
2019-02-05T12:11:49.145Z,944.18
2019-02-05T12:12:49.123Z,944.12
2019-02-05T12:13:49.224Z,944.10
2019-02-05T12:14:50.454Z,944.12
2019-02-05T12:15:49.088Z,944.14
2019-02-05T12:16:49.090Z,944.13
2019-02-05T12:17:49.067Z,944.16
2019-02-05T12:18:49.060Z,944.09
2019-02-05T12:19:49.050Z,944.11
2019-02-05T12:20:49.050Z,944.07
2019-02-05T12:21:49.036Z,944.07
2019-02-05T12:22:49.014Z,944.04
2019-02-05T12:23:49.003Z,944.01
2019-02-05T12:24:48.990Z,944.05
2019-02-05T12:25:48.979Z,944.03
2019-02-05T12:26:49.003Z,944.00
2019-02-05T12:27:48.958Z,943.97
2019-02-05T12:28:48.946Z,943.95